Flight Track Log - Related Links

Times and Time Zones

All times are in EDT time to prevent confusion due to time zone crossing. See the JBU676 flight status page for this flight to view local times or setup timezone preferences in your user account.

Time Position Orientation Groundspeed Altitude Reporting Facility
EDT Latitude Longitude Course Direction KTS MPH feet Rate Location/Type
Mon 12:07:26 AM 33.9500 -118.4667 214° Southwest 165 190 1,700  Level Southern California TRACON
Mon 12:08:34 AM 33.9017 -118.5064 187° South 193 222 2,800 1,453 Climbing Los Angeles Center
Mon 12:09:34 AM 33.8325 -118.5169 183° South 234 269 4,800 2,300 Climbing Los Angeles Center
Mon 12:10:34 AM 33.7572 -118.5222 167° South 260 299 7,400 2,500 Climbing Los Angeles Center
Mon 12:11:34 AM 33.6844 -118.5028 89° East 273 314 9,800 1,800 Climbing Los Angeles Center
Mon 12:12:34 AM 33.6864 -118.4056 72° East 208 239 11,000 1,400 Climbing Los Angeles Center
Mon 12:13:34 AM 33.7222 -118.2764 71° East 268 308 12,600 1,800 Climbing Los Angeles Center
Mon 12:14:34 AM 33.7556 -118.1600 66° East 318 366 14,600 1,850 Climbing Los Angeles Center
Mon 12:15:34 AM 33.7992 -118.0436 39° Northeast 360 414 16,300 1,750 Climbing Los Angeles Center
Mon 12:16:34 AM 33.8733 -117.9700 36° Northeast 366 421 18,100 1,650 Climbing Los Angeles Center
Mon 12:17:34 AM 33.9664 -117.8894 37° Northeast 382 440 19,600 1,350 Climbing Los Angeles Center
Mon 12:18:34 AM 34.0594 -117.8061 45° Northeast 396 456 20,800 1,200 Climbing Los Angeles Center
Mon 12:19:34 AM 34.1378 -117.7122 48° Northeast 401 461 22,000 1,100 Climbing Los Angeles Center
Mon 12:20:34 AM 34.2186 -117.6033 47° Northeast 406 467 23,000 1,100 Climbing Los Angeles Center
Mon 12:21:34 AM 34.3053 -117.4892 47° Northeast 434 499 24,200 1,050 Climbing Los Angeles Center
Mon 12:22:34 AM 34.3964 -117.3700 52° Northeast 441 507 25,100 950 Climbing Los Angeles Center
Mon 12:23:34 AM 34.4664 -117.2625 50° Northeast 441 507 26,100 1,100 Climbing Los Angeles Center
Mon 12:24:34 AM 34.5572 -117.1328 48° Northeast 453 521 27,300 950 Climbing Los Angeles Center
Mon 12:25:34 AM 34.6436 -117.0175 48° Northeast 453 521 28,000 900 Climbing Los Angeles Center
Mon 12:26:34 AM 34.7322 -116.8972 48° Northeast 458 527 29,100 950 Climbing Los Angeles Center
Mon 12:27:34 AM 34.8183 -116.7792 50° Northeast 458 527 29,900 900 Climbing Los Angeles Center
Mon 12:28:34 AM 34.9006 -116.6581 48° Northeast 458 527 30,900 900 Climbing Los Angeles Center
Mon 12:29:34 AM 34.9864 -116.5422 45° Northeast 458 527 31,700 800 Climbing Los Angeles Center
Mon 12:30:34 AM 35.0786 -116.4308 45° Northeast 458 527 32,500 650 Climbing Los Angeles Center
Mon 12:31:34 AM 35.1686 -116.3194 46° Northeast 458 527 33,000 250 Climbing Los Angeles Center
Mon 12:32:34 AM 35.2583 -116.2053 45° Northeast 453 521 33,000  Level Los Angeles Center
Mon 12:33:34 AM 35.3503 -116.0908 46° Northeast 453 521 33,000  Level Los Angeles Center
Mon 12:34:34 AM 35.4400 -115.9786 47° Northeast 453 521 33,000  Level Los Angeles Center
Mon 12:35:34 AM 35.5275 -115.8636 46° Northeast 453 521 33,000  Level Los Angeles Center
Mon 12:36:34 AM 35.6167 -115.7483 46° Northeast 453 521 33,000  Level Los Angeles Center
Mon 12:37:34 AM 35.7042 -115.6378 46° Northeast 453 521 33,000  Level Los Angeles Center
Mon 12:38:34 AM 35.7975 -115.5194 46° Northeast 459 528 33,000  Level Los Angeles Center
Mon 12:39:34 AM 35.8864 -115.4061 47° Northeast 464 534 33,000  Level Los Angeles Center
Mon 12:40:34 AM 35.9733 -115.2925 49° Northeast 458 527 33,000  Level Los Angeles Center
Mon 12:41:34 AM 36.0581 -115.1733 62° Northeast 458 527 33,000  Level Los Angeles Center
Mon 12:42:34 AM 36.1175 -115.0364 69° East 452 520 33,000  Level Los Angeles Center
Mon 12:43:34 AM 36.1619 -114.8917 69° East 447 514 33,000  Level Los Angeles Center
Mon 12:44:34 AM 36.2044 -114.7572 68° East 452 520 33,000  Level Los Angeles Center
Mon 12:45:34 AM 36.2506 -114.6122 71° East 452 520 33,000  Level Los Angeles Center
Mon 12:46:34 AM 36.2925 -114.4619 68° East 452 520 33,000  Level Los Angeles Center
Mon 12:47:34 AM 36.3383 -114.3194 70° East 452 520 33,000  Level Los Angeles Center
Mon 12:48:34 AM 36.3819 -114.1714 70° East 452 520 33,000  Level Los Angeles Center
Mon 12:49:34 AM 36.4256 -114.0258 70° East 452 520 33,000  Level Los Angeles Center
Mon 12:50:34 AM 36.4689 -113.8800 70° East 452 520 33,000  Level Los Angeles Center
Mon 12:51:34 AM 36.5178 -113.7158 71° East 452 520 33,000  Level Los Angeles Center
Mon 12:52:34 AM 36.5606 -113.5647 70° East 452 520 33,000  Level Los Angeles Center
Mon 12:53:34 AM 36.6033 -113.4158 69° East 452 520 33,000  Level Los Angeles Center
Mon 12:54:34 AM 36.6481 -113.2667 70° East 452 520 33,000  Level Los Angeles Center
Mon 12:55:34 AM 36.6864 -113.1333 71° East 452 520 33,000  Level Los Angeles Center
Mon 12:56:34 AM 36.7286 -112.9842 71° East 452 520 33,000  Level Los Angeles Center
Mon 12:57:34 AM 36.7706 -112.8322 70° East 452 520 33,000  Level Los Angeles Center
Mon 12:58:34 AM 36.8144 -112.6850 70° East 452 520 33,000  Level Los Angeles Center
Mon 12:59:34 AM 36.8581 -112.5353 70° East 452 520 33,000  Level Los Angeles Center
Mon 01:00:34 AM 36.9014 -112.3825 71° East 452 520 33,000  Level Los Angeles Center
Mon 01:02:56 AM 37.0025 -112.0125 71° East 466 536 33,000  Level Denver Center
Mon 01:03:56 AM 37.0453 -111.8569 71° East 466 536 33,000  Level Denver Center
Mon 01:04:56 AM 37.0856 -111.7092 70° East 461 531 33,000  Level Denver Center
Mon 01:05:56 AM 37.1300 -111.5561 72° East 456 525 33,000  Level Denver Center
Mon 01:06:56 AM 37.1628 -111.4308 72° East 456 525 33,000  Level Denver Center
Mon 01:07:56 AM 37.2075 -111.2619 71° East 456 525 33,000  Level Denver Center
Mon 01:08:56 AM 37.2494 -111.1081 71° East 456 525 33,000  Level Denver Center
Mon 01:09:56 AM 37.2908 -110.9569 72° East 451 519 33,000  Level Denver Center
Mon 01:10:56 AM 37.3303 -110.8028 71° East 456 525 33,000  Level Denver Center
Mon 01:11:56 AM 37.3714 -110.6483 72° East 456 525 33,000  Level Denver Center
Mon 01:12:56 AM 37.4106 -110.4939 71° East 456 525 33,000  Level Denver Center
Mon 01:13:56 AM 37.4558 -110.3239 70° East 456 525 33,000  Level Denver Center
Mon 01:14:56 AM 37.4983 -110.1744 72° East 450 518 33,000  Level Denver Center
Mon 01:15:56 AM 37.5342 -110.0375 73° East 455 524 33,000  Level Denver Center
Mon 01:16:56 AM 37.5769 -109.8642 72° East 460 529 33,000  Level Denver Center
Mon 01:17:56 AM 37.6169 -109.7114 72° East 454 522 33,000  Level Denver Center
Mon 01:18:56 AM 37.6567 -109.5558 72° East 454 522 33,000  Level Denver Center
Mon 01:19:56 AM 37.6914 -109.4183 72° East 455 524 33,000  Level Denver Center
Mon 01:20:55 AM 37.7308 -109.2625 73° East 455 524 33,000  Level Denver Center
Mon 01:21:55 AM 37.7725 -109.0908 72° East 455 524 33,000  Level Denver Center
Mon 01:22:55 AM 37.8114 -108.9347 66° East 455 524 33,000  Level Denver Center
Mon 01:23:55 AM 37.8581 -108.7994 66° East 455 524 33,000  Level Denver Center
Mon 01:24:55 AM 37.9111 -108.6514 66° East 462 532 33,000  Level Denver Center
Mon 01:25:55 AM 37.9683 -108.4844 66° East 457 526 33,000  Level Denver Center
Mon 01:26:55 AM 38.0189 -108.3383 67° East 452 520 33,000  Level Denver Center
Mon 01:27:55 AM 38.0647 -108.2025 68° East 464 534 33,000  Level Denver Center
Mon 01:28:55 AM 38.1128 -108.0481 66° East 464 534 33,000  Level Denver Center
Mon 01:29:55 AM 38.1692 -107.8831 66° East 464 534 33,000  Level Denver Center
Mon 01:30:55 AM 38.2211 -107.7308 68° East 464 534 33,000  Level Denver Center
Mon 01:31:55 AM 38.2706 -107.5783 66° East 472 543 33,000  Level Denver Center
Mon 01:32:55 AM 38.3178 -107.4414 67° East 472 543 33,000  Level Denver Center
Mon 01:33:55 AM 38.3711 -107.2781 67° East 467 537 33,000  Level Denver Center
Mon 01:34:55 AM 38.4219 -107.1275 72° East 467 537 33,000  Level Denver Center
Mon 01:35:55 AM 38.4583 -106.9875 74° East 462 532 33,000  Level Denver Center
Mon 01:36:55 AM 38.4922 -106.8311 76° East 457 526 33,000  Level Denver Center
Mon 01:37:55 AM 38.5261 -106.6536 75° East 463 533 33,000 50 Level Denver Center
Mon 01:38:55 AM 38.5594 -106.4892 76° East 469 540 33,100  Climbing Denver Center
Mon 01:39:55 AM 38.5867 -106.3456 76° East 469 540 33,000 -50 Descending Denver Center
Mon 01:40:55 AM 38.6175 -106.1836 75° East 469 540 33,000  Level Denver Center
Mon 01:41:55 AM 38.6503 -106.0211 78° East 469 540 33,000  Level Denver Center
Mon 01:42:55 AM 38.6767 -105.8642 77° East 464 534 33,000  Level Denver Center
Mon 01:43:55 AM 38.7069 -105.7017 75° East 464 534 33,000  Level Denver Center
Mon 01:44:55 AM 38.7392 -105.5417 76° East 464 534 33,000  Level Denver Center
Mon 01:45:55 AM 38.7692 -105.3814 76° East 459 528 33,000  Level Denver Center
Mon 01:46:55 AM 38.8028 -105.2050 78° East 459 528 33,000  Level Denver Center
Mon 01:47:55 AM 38.8300 -105.0419 76° East 459 528 33,000  Level Denver Center
Mon 01:48:55 AM 38.8611 -104.8786 77° East 459 528 33,000  Level Denver Center
Mon 01:49:55 AM 38.8903 -104.7181 77° East 463 533 33,000  Level Denver Center
Mon 01:50:55 AM 38.9208 -104.5517 78° East 469 540 33,000  Level Denver Center
Mon 01:51:55 AM 38.9472 -104.3881 77° East 469 540 33,000  Level Denver Center
Mon 01:52:55 AM 38.9756 -104.2297 76° East 464 534 33,000  Level Denver Center
Mon 01:53:55 AM 39.0056 -104.0686 78° East 464 534 33,000  Level Denver Center
Mon 01:54:55 AM 39.0333 -103.9044 77° East 464 534 33,000  Level Denver Center
Mon 01:55:55 AM 39.0611 -103.7483 78° East 457 526 33,000  Level Denver Center
Mon 01:56:55 AM 39.0864 -103.5894 76° East 447 514 33,000  Level Denver Center
Mon 01:57:55 AM 39.1156 -103.4331 78° East 447 514 33,000  Level Denver Center
Mon 01:58:55 AM 39.1425 -103.2686 79° East 458 527 33,000  Level Denver Center
Mon 01:59:55 AM 39.1669 -103.1094 77° East 453 521 33,000  Level Denver Center
Mon 02:00:55 AM 39.1919 -102.9661 78° East 453 521 33,000  Level Denver Center
Mon 02:01:55 AM 39.2181 -102.8039 79° East 453 521 33,000  Level Denver Center
Mon 02:02:55 AM 39.2439 -102.6311 78° East 453 521 33,000  Level Denver Center
Mon 02:03:55 AM 39.2697 -102.4714 79° East 453 521 33,000  Level Denver Center
Mon 02:04:55 AM 39.2914 -102.3225 77° East 453 521 33,000  Level Denver Center
Mon 02:05:55 AM 39.3189 -102.1625 79° East 453 521 33,000  Level Denver Center
Mon 02:06:55 AM 39.3453 -101.9781 79° East 461 531 33,000  Level Denver Center
Mon 02:07:55 AM 39.3700 -101.8181 77° East 455 524 33,000  Level Denver Center
Mon 02:08:55 AM 39.3956 -101.6764 67° East 449 517 33,000  Level Denver Center
Mon 02:09:55 AM 39.4489 -101.5114 66° East 450 518 33,000  Level Denver Center
Mon 02:10:55 AM 39.4989 -101.3622 67° East 445 512 33,000  Level Denver Center
Mon 02:11:55 AM 39.5447 -101.2242 65° Northeast 450 518 33,000  Level Denver Center
Mon 02:12:55 AM 39.5964 -101.0800 68° East 450 518 33,000  Level Denver Center
Mon 02:13:55 AM 39.6489 -100.9114 67° East 450 518 33,000  Level Denver Center
Mon 02:14:55 AM 39.6997 -100.7586 66° East 445 512 33,000  Level Denver Center
Mon 02:15:55 AM 39.7453 -100.6281 67° East 440 506 33,000  Level Denver Center
Mon 02:16:55 AM 39.7992 -100.4583 66° East 453 521 33,000  Level Denver Center
Mon 02:17:55 AM 39.8478 -100.3133 69° East 448 516 33,000  Level Denver Center
Mon 02:18:55 AM 39.8919 -100.1658 66° East 443 510 33,000  Level Denver Center
Mon 02:19:55 AM 39.9442 -100.0144 69° East 443 510 33,000  Level Denver Center
Mon 02:20:55 AM 39.9894 -99.8611 67° East 448 516 33,000  Level Denver Center
Mon 02:21:55 AM 40.0392 -99.7069 68° East 448 516 33,000  Level Denver Center
Mon 02:23:27 AM 40.1058 -99.4906 68° East 456 525 33,000  Level Minneapolis Center
Mon 02:24:27 AM 40.1517 -99.3403 68° East 456 525 33,000  Level Minneapolis Center
Mon 02:25:27 AM 40.1969 -99.1925 67° East 449 517 33,000  Level Minneapolis Center
Mon 02:26:27 AM 40.2442 -99.0475 67° East 442 509 33,000  Level Minneapolis Center
Mon 02:27:27 AM 40.2911 -98.8994 69° East 437 503 33,000  Level Minneapolis Center
Mon 02:28:27 AM 40.3361 -98.7483 69° East 437 503 33,000  Level Minneapolis Center
Mon 02:29:27 AM 40.3808 -98.5969 68° East 442 509 33,000  Level Minneapolis Center
Mon 02:30:32 AM 40.4131 -98.4908 68° East 442 509 33,000  Level Minneapolis Center
Mon 02:31:32 AM 40.4814 -98.2700 69° East 458 527 33,000  Level Minneapolis Center
Mon 02:32:32 AM 40.5253 -98.1181 69° East 453 521 33,000  Level Minneapolis Center
Mon 02:33:32 AM 40.5692 -97.9683 68° East 447 514 33,000  Level Minneapolis Center
Mon 02:34:32 AM 40.6147 -97.8189 68° East 447 514 33,000  Level Minneapolis Center
Mon 02:35:32 AM 40.6606 -97.6661 68° East 442 509 33,000  Level Minneapolis Center
Mon 02:36:32 AM 40.7056 -97.5161 69° East 442 509 33,000  Level Minneapolis Center
Mon 02:37:32 AM 40.7486 -97.3686 71° East 442 509 33,000  Level Minneapolis Center
Mon 02:38:32 AM 40.7872 -97.2175 70° East 435 501 33,000  Level Minneapolis Center
Mon 02:39:32 AM 40.8297 -97.0667 68° East 435 501 33,000  Level Minneapolis Center
Mon 02:40:32 AM 40.8742 -96.9214 71° East 435 501 33,000  Level Minneapolis Center
Mon 02:41:32 AM 40.9142 -96.7700 78° East 435 501 33,000  Level Minneapolis Center
Mon 02:42:32 AM 40.9397 -96.6122 80° East 435 501 33,000  Level Minneapolis Center
Mon 02:43:32 AM 40.9608 -96.4514 79° East 441 507 33,000  Level Minneapolis Center
Mon 02:44:32 AM 40.9842 -96.2850 79° East 448 516 33,000  Level Minneapolis Center
Mon 02:45:32 AM 41.0069 -96.1267 81° East 448 516 33,000  Level Minneapolis Center
Mon 02:46:32 AM 41.0272 -95.9628 79° East 448 516 33,000  Level Minneapolis Center
Mon 02:47:32 AM 41.0497 -95.8017 81° East 448 516 33,000  Level Minneapolis Center
Mon 02:48:32 AM 41.0697 -95.6375 80° East 448 516 33,000  Level Minneapolis Center
Mon 02:49:32 AM 41.0917 -95.4761 80° East 448 516 33,000  Level Minneapolis Center
Mon 02:50:32 AM 41.1133 -95.3144 80° East 448 516 33,000  Level Minneapolis Center
Mon 02:51:32 AM 41.1347 -95.1556 81° East 443 510 33,000  Level Minneapolis Center
Mon 02:52:32 AM 41.1536 -94.9908 81° East 443 510 33,000  Level Minneapolis Center
Mon 02:53:32 AM 41.1725 -94.8317 80° East 443 510 33,000  Level Minneapolis Center
Mon 02:54:32 AM 41.1931 -94.6725 80° East 443 510 33,000  Level Minneapolis Center
Mon 02:55:32 AM 41.2136 -94.5103 82° East 443 510 33,000  Level Minneapolis Center
Mon 02:56:32 AM 41.2297 -94.3508 81° East 443 510 33,000  Level Minneapolis Center
Mon 02:57:32 AM 41.2494 -94.1911 81° East 443 510 33,000  Level Minneapolis Center
Mon 02:59:51 AM 41.2917 -93.8247 81° East 443 510 33,000  Level Chicago Center
Mon 03:00:51 AM 41.3103 -93.6656 81° East 443 510 33,000  Level Chicago Center
Mon 03:01:51 AM 41.3286 -93.5064 82° East 443 510 33,000  Level Chicago Center
Mon 03:02:51 AM 41.3447 -93.3497 81° East 438 504 33,000  Level Chicago Center
Mon 03:03:51 AM 41.3625 -93.1958 82° East 438 504 33,000  Level Chicago Center
Mon 03:04:51 AM 41.3806 -93.0308 81° East 432 497 33,000  Level Chicago Center
Mon 03:05:51 AM 41.3978 -92.8794 81° East 431 496 33,000  Level Chicago Center
Mon 03:06:51 AM 41.4172 -92.7200 81° East 426 490 33,000  Level Chicago Center
Mon 03:07:51 AM 41.4364 -92.5603 82° East 426 490 33,000  Level Chicago Center
Mon 03:08:51 AM 41.4531 -92.4031 83° East 426 490 33,000  Level Chicago Center
Mon 03:09:51 AM 41.4672 -92.2569 81° East 426 490 33,000  Level Chicago Center
Mon 03:10:51 AM 41.4858 -92.0969 81° East 431 496 33,000  Level Chicago Center
Mon 03:11:51 AM 41.5042 -91.9342 81° East 436 502 33,000  Level Chicago Center
Mon 03:12:51 AM 41.5225 -91.7711 82° East 441 507 33,000  Level Chicago Center
Mon 03:13:51 AM 41.5406 -91.6053 82° East 441 507 33,000  Level Chicago Center
Mon 03:14:51 AM 41.5581 -91.4394 83° East 447 514 33,000 50 Level Chicago Center
Mon 03:15:51 AM 41.5736 -91.2761 81° East 452 520 33,100  Climbing Chicago Center
Mon 03:16:51 AM 41.5928 -91.1158 82° East 445 512 33,000 -50 Descending Chicago Center
Mon 03:17:51 AM 41.6097 -90.9522 82° East 439 505 33,000  Level Chicago Center
Mon 03:18:51 AM 41.6264 -90.7889 83° East 439 505 33,000  Level Chicago Center
Mon 03:19:51 AM 41.6431 -90.6169 82° East 439 505 33,000  Level Chicago Center
Mon 03:20:51 AM 41.6572 -90.4728 82° East 434 499 33,000  Level Chicago Center
Mon 03:21:51 AM 41.6733 -90.3117 83° East 434 499 33,000  Level Chicago Center
Mon 03:22:51 AM 41.6892 -90.1450 83° East 444 511 33,000  Level Chicago Center
Mon 03:23:51 AM 41.7047 -89.9756 83° East 449 517 33,000 50 Level Chicago Center
Mon 03:24:51 AM 41.7200 -89.8089 83° East 449 517 33,100  Climbing Chicago Center
Mon 03:25:51 AM 41.7353 -89.6447 85° East 449 517 33,000 -50 Descending Chicago Center
Mon 03:26:51 AM 41.7481 -89.4611 82° East 444 511 33,000  Level Chicago Center
Mon 03:27:51 AM 41.7647 -89.2942 83° East 444 511 33,000  Level Chicago Center
Mon 03:28:51 AM 41.7792 -89.1272 84° East 444 511 33,000  Level Chicago Center
Mon 03:29:51 AM 41.7933 -88.9572 84° East 444 511 33,000  Level Chicago Center
Mon 03:30:51 AM 41.8072 -88.7900 84° East 444 511 33,000  Level Chicago Center
Mon 03:31:51 AM 41.8208 -88.6200 84° East 449 517 33,000  Level Chicago Center
Mon 03:32:51 AM 41.8342 -88.4497 83° East 449 517 33,000  Level Chicago Center
Mon 03:33:51 AM 41.8494 -88.2794 84° East 454 522 33,000  Level Chicago Center
Mon 03:34:51 AM 41.8622 -88.1064 84° East 454 522 33,000  Level Chicago Center
Mon 03:35:51 AM 41.8750 -87.9389 84° East 459 528 33,000  Level Chicago Center
Mon 03:36:51 AM 41.8872 -87.7683 84° East 459 528 33,000  Level Chicago Center
Mon 03:37:51 AM 41.8994 -87.5981 85° East 459 528 33,000  Level Chicago Center
Mon 03:38:51 AM 41.9111 -87.4275 85° East 459 528 33,000  Level Chicago Center
Mon 03:39:51 AM 41.9228 -87.2569 85° East 464 534 33,000  Level Chicago Center
Mon 03:40:51 AM 41.9342 -87.0889 84° East 464 534 33,000  Level Chicago Center
Mon 03:41:51 AM 41.9475 -86.9211 86° East 464 534 33,000  Level Chicago Center
Mon 03:42:51 AM 41.9561 -86.7503 84° East 459 528 33,000  Level Chicago Center
Mon 03:43:51 AM 41.9689 -86.5767 84° East 465 535 33,000  Level Chicago Center
Mon 03:44:51 AM 41.9814 -86.4083 86° East 457 526 33,000  Level Chicago Center
Mon 03:45:51 AM 41.9894 -86.2378 86° East 452 520 33,000  Level Chicago Center
Mon 03:46:51 AM 41.9992 -86.0667 85° East 457 526 33,000  Level Chicago Center
Mon 03:48:28 AM 42.0158 -85.8133 87° East 462 532 33,000 191 Level Cleveland Center
Mon 03:49:28 AM 42.0233 -85.6433 86° East 457 526 33,500 800 Climbing Cleveland Center
Mon 03:50:28 AM 42.0336 -85.4567 86° East 457 526 34,600 750 Climbing Cleveland Center
Mon 03:51:28 AM 42.0428 -85.2894 87° East 457 526 35,000 200 Climbing Cleveland Center
Mon 03:52:28 AM 42.0494 -85.1194 85° East 457 526 35,000  Level Cleveland Center
Mon 03:53:28 AM 42.0603 -84.9494 88° East 457 526 35,000  Level Cleveland Center
Mon 03:54:28 AM 42.0647 -84.7792 86° East 457 526 35,000  Level Cleveland Center
Mon 03:55:28 AM 42.0728 -84.6089 90° East 457 526 35,000  Level Cleveland Center
Mon 03:56:28 AM 42.0719 -84.4550 90° East 457 526 35,000  Level Cleveland Center
Mon 03:57:28 AM 42.0711 -84.2842 90° East 457 526 35,000  Level Cleveland Center
Mon 03:58:28 AM 42.0703 -84.1133 90° East 462 532 35,000  Level Cleveland Center
Mon 03:59:28 AM 42.0692 -83.9428 91° East 457 526 35,000  Level Cleveland Center
Mon 04:00:28 AM 42.0678 -83.7719 92° East 457 526 35,000  Level Cleveland Center
Mon 04:01:28 AM 42.0642 -83.6011 90° East 457 526 35,000  Level Cleveland Center
Mon 04:02:28 AM 42.0642 -83.4306 92° East 457 526 35,000  Level Cleveland Center
Mon 04:03:28 AM 42.0600 -83.2597 90° East 456 525 35,000 -50 Level Cleveland Center
Mon 04:04:28 AM 42.0597 -83.0919 91° East 456 525 34,900  Descending Cleveland Center
Mon 04:05:28 AM 42.0569 -82.9211 91° East 459 528 35,000 50 Climbing Cleveland Center
Mon 04:06:28 AM 42.0544 -82.7336 91° East 459 528 35,000  Level Cleveland Center
Mon 04:07:28 AM 42.0514 -82.5631 92° East 454 522 35,000  Level Cleveland Center
Mon 04:08:28 AM 42.0478 -82.3950 92° East 453 521 35,000  Level Cleveland Center
Mon 04:09:28 AM 42.0442 -82.2272 92° East 453 521 35,000  Level Cleveland Center
Mon 04:10:28 AM 42.0400 -82.0650 91° East 440 506 35,000  Level Cleveland Center
Mon 04:11:28 AM 42.0378 -81.9000 92° East 440 506 35,000  Level Cleveland Center
Mon 04:12:28 AM 42.0333 -81.7378 93° East 440 506 35,000  Level Cleveland Center
Mon 04:13:28 AM 42.0264 -81.5783 91° East 440 506 35,000  Level Cleveland Center
Mon 04:14:28 AM 42.0236 -81.4300 92° East 440 506 35,000  Level Cleveland Center
Mon 04:15:28 AM 42.0183 -81.2706 92° East 440 506 35,000  Level Cleveland Center
Mon 04:16:28 AM 42.0131 -81.1086 93° East 435 501 35,000  Level Cleveland Center
Mon 04:17:28 AM 42.0072 -80.9464 92° East 435 501 35,000  Level Cleveland Center
Mon 04:18:28 AM 42.0036 -80.7844 93° East 435 501 35,000  Level Cleveland Center
Mon 04:19:28 AM 41.9975 -80.6056 93° East 440 506 35,000  Level Cleveland Center
Mon 04:20:28 AM 41.9911 -80.4433 93° East 440 506 35,000  Level Cleveland Center
Mon 04:21:28 AM 41.9844 -80.2786 92° East 440 506 35,000  Level Cleveland Center
Mon 04:22:28 AM 41.9800 -80.1139 94° East 440 506 35,000  Level Cleveland Center
Mon 04:23:28 AM 41.9708 -79.9547 92° East 435 501 35,000  Level Cleveland Center
Mon 04:24:28 AM 41.9656 -79.7956 94° East 435 501 35,000  Level Cleveland Center
Mon 04:25:28 AM 41.9581 -79.6339 93° East 435 501 35,000  Level Cleveland Center
Mon 04:26:28 AM 41.9506 -79.4692 93° East 435 501 35,000  Level Cleveland Center
Mon 04:27:28 AM 41.9444 -79.3075 94° East 435 501 35,000  Level Cleveland Center
Mon 04:28:28 AM 41.9364 -79.1428 95° East 435 501 35,000  Level Cleveland Center
Mon 04:29:28 AM 41.9258 -78.9811 93° East 435 501 35,000  Level Cleveland Center
Mon 04:30:28 AM 41.9194 -78.8167 94° East 440 506 35,000  Level Cleveland Center
Mon 04:31:28 AM 41.9106 -78.6553 94° East 440 506 35,000  Level Cleveland Center
Mon 04:32:28 AM 41.9014 -78.4908 93° East 440 506 35,000  Level Cleveland Center
Mon 04:33:29 AM 41.8942 -78.3292 96° East 440 506 35,000  Level Cleveland Center
Mon 04:34:28 AM 41.8825 -78.1706 94° East 440 506 35,000  Level Cleveland Center
Mon 04:35:53 AM 41.8722 -77.9658 99° East 433 498 35,000  Level New York Center
Mon 04:36:52 AM 41.8525 -77.8078 110° East 428 493 35,000  Level New York Center
Mon 04:37:54 AM 41.8131 -77.6617 109° East 421 484 35,000  Level New York Center
Mon 04:38:52 AM 41.7758 -77.5131 110° East 416 479 35,000  Level New York Center
Mon 04:39:53 AM 41.7361 -77.3672 110° East 416 479 35,000  Level New York Center
Mon 04:40:52 AM 41.6961 -77.2217 109° East 421 484 35,000  Level New York Center
Mon 04:41:52 AM 41.6581 -77.0764 110° East 415 478 35,000  Level New York Center
Mon 04:42:54 AM 41.6144 -76.9139 111° Southeast 420 483 35,000  Level New York Center
Mon 04:43:54 AM 41.5719 -76.7686 110° East 420 483 35,000  Level New York Center
Mon 04:44:52 AM 41.5333 -76.6239 110° East 420 483 35,000  Level New York Center
Mon 04:45:52 AM 41.5017 -76.5047 111° Southeast 420 483 35,000  Level New York Center
Mon 04:46:52 AM 41.4553 -76.3403 109° East 420 483 35,000  Level New York Center
Mon 04:47:52 AM 41.4164 -76.1903 111° Southeast 425 489 35,000  Level New York Center
Mon 04:48:52 AM 41.3731 -76.0431 111° Southeast 425 489 35,000 -347 Level New York Center
Mon 04:49:53 AM 41.3261 -75.8819 111° Southeast 420 483 34,300 -6,000 Descending New York Center
Mon 04:50:52 AM 41.2825 -75.7294 113° Southeast 426 490 23,000 -2,400 Descending New York Center
Mon 04:51:53 AM 41.2419 -75.5997 114° Southeast 426 490 29,500 2,380 Climbing New York Center
Mon 04:52:53 AM 41.1975 -75.4642 115° Southeast 412 474 27,800 -1,664 Descending New York Center
Mon 04:53:52 AM 41.1525 -75.3342 114° Southeast 393 452 26,200 -1,600 Descending New York Center
Mon 04:54:53 AM 41.1133 -75.2158 114° Southeast 379 436 24,600 -1,537 Descending New York Center
Mon 04:55:53 AM 41.0722 -75.0922 114° Southeast 368 423 23,100 -800 Descending New York Center
Mon 04:56:53 AM 41.0231 -74.9486 109° East 368 423 23,000 -50 Descending New York Center
Mon 04:57:54 AM 40.9883 -74.8119 98° East 379 436 23,000  Level New York Center
Mon 04:58:53 AM 40.9725 -74.6625 98° East 393 452 23,000 -800 Level New York Center
Mon 04:59:54 AM 40.9564 -74.5133 98° East 399 459 21,400 -1,500 Descending New York Center
Mon 05:00:53 AM 40.9422 -74.3725 95° East 399 459 20,000 -1,018 Descending New York Center
Mon 05:01:46 AM 40.9333 -74.2500 127° Southeast 392 451 19,500 -584 Descending New York TRACON
Mon 05:02:46 AM 40.8667 -74.1333 137° Southeast 357 411 18,900 -1,700 Descending New York TRACON
Mon 05:03:46 AM 40.8000 -74.0500 137° Southeast 345 397 16,100 -2,650 Descending New York TRACON
Mon 05:04:46 AM 40.7333 -73.9667 119° Southeast 333 383 13,600 -2,714 Descending New York TRACON
Mon 05:05:52 AM 40.6833 -73.8500 118° Southeast 319 367 10,400 -1,905 Descending New York TRACON
Mon 05:06:52 AM 40.6500 -73.7667 150° Southeast 262 302 9,600 -2,000 Descending New York TRACON
Mon 05:07:52 AM 40.5833 -73.7167 169° South 236 272 6,400 -2,250 Descending New York TRACON
Mon 05:08:52 AM 40.5167 -73.7000 180° South 233 268 5,100 -700 Descending New York TRACON
Mon 05:09:52 AM 40.4667 -73.7000 194° South 202 232 5,000 -158 Descending New York TRACON
Mon 05:10:46 AM 40.4167 -73.7167 229° Southwest 197 227 4,800 -684 Descending New York TRACON
Mon 05:11:46 AM 40.3833 -73.7667 270° West 215 247 3,700 -900 Descending New York TRACON
Mon 05:12:46 AM 40.3833 -73.8333 303° West 217 250 3,000 -500 Descending New York TRACON
Mon 05:13:46 AM 40.4167 -73.9000 360° North 213 245 2,700 -500 Descending New York TRACON
Mon 05:14:46 AM 40.4667 -73.9000 37° Northeast 212 244 2,000 -350 Descending New York TRACON
Mon 05:15:46 AM 40.5167 -73.8500 27° Northeast 208 239 2,000 -300 Level New York TRACON
Mon 05:16:46 AM 40.5667 -73.8167 27° Northeast 205 236 1,400 -762 Descending New York TRACON
Mon 05:17:52 AM 40.6167 -73.7833 27° Northeast 151 174 400 -909 Descending New York TRACON

Login

Don't have an account? Register now (free) for customized features, flight alerts, and more!